Terminal Aerodrome Forecast
Issued by NWS Albany, NY

Home | Current Version | Previous Version | Text Only | Print | Product List | Glossary On
Versions: 1 2 3 4 5 6 7 8 9 10 11 12 13 14 15 16 17 18 19 20 21
000
FTUS41 KALY 311120
TAFALB
TAF
KALB 311120Z 3112/0112 26008KT P6SM FEW080
     FM311400 27008G14KT P6SM FEW080
     FM311700 29012G20KT P6SM FEW080
     FM312300 29006KT P6SM SKC
     FM010400 VRB02KT P6SM BKN150
     FM011000 18005KT P6SM BKN120=

USA.gov is the U.S. government's official web portal to all federal, state and local government web resources and services.